Time,TemperatureF,DewpointF,PressureIn,WindDirection,WindDirectionDegrees,WindSpeedMPH,WindSpeedGustMPH,Humidity,HourlyPrecipIn,Conditions,Clouds,dailyrainin,SolarRadiationWatts/m^2,SoftwareType,DateUTC
2013-09-21 00:02:00,52.0,28.0,-100.00,WSW,246,8.0,10.0,39,0.00,,,0.00,0.000000,,2013-09-21 06:02:00,
2013-09-21 00:12:00,52.0,28.0,-100.00,WSW,246,8.0,10.0,39,0.00,,,0.00,0.000000,,2013-09-21 06:12:00,
2013-09-21 00:52:00,51.0,28.0,-100.00,WNW,287,3.0,9.0,41,0.00,,,0.00,0.000000,,2013-09-21 06:52:00,
2013-09-21 01:01:00,51.0,28.0,-100.00,WNW,287,3.0,9.0,41,0.00,,,0.00,0.000000,,2013-09-21 07:01:00,
2013-09-21 01:11:00,51.0,28.0,-100.00,WNW,287,3.0,9.0,41,0.00,,,0.00,0.000000,,2013-09-21 07:11:00,
2013-09-21 01:21:00,51.0,28.0,-100.00,WNW,287,3.0,9.0,41,0.00,,,0.00,0.000000,,2013-09-21 07:21:00,
2013-09-21 01:52:00,51.0,30.0,-100.00,SW,234,4.0,8.0,45,0.00,,,0.00,0.000000,,2013-09-21 07:52:00,
2013-09-21 02:03:00,51.0,30.0,-100.00,SW,234,4.0,8.0,45,0.00,,,0.00,0.000000,,2013-09-21 08:03:00,
2013-09-21 02:12:00,51.0,30.0,-100.00,SW,234,4.0,8.0,45,0.00,,,0.00,0.000000,,2013-09-21 08:12:00,
2013-09-21 02:21:00,51.0,30.0,-100.00,SW,234,4.0,8.0,45,0.00,,,0.00,0.000000,,2013-09-21 08:21:00,
2013-09-21 02:22:00,50.0,27.0,-100.00,WSW,253,6.0,9.0,41,0.00,,,0.00,0.000000,,2013-09-21 08:22:00,
2013-09-21 02:52:00,50.0,27.0,-100.00,WSW,253,6.0,9.0,41,0.00,,,0.00,0.000000,,2013-09-21 08:52:00,
2013-09-21 03:01:00,50.0,27.0,-100.00,WSW,253,6.0,9.0,41,0.00,,,0.00,0.000000,,2013-09-21 09:01:00,
2013-09-21 03:11:00,50.0,27.0,-100.00,WSW,253,6.0,9.0,41,0.00,,,0.00,0.000000,,2013-09-21 09:11:00,
2013-09-21 03:22:00,50.0,27.0,-100.00,WSW,243,7.0,10.0,41,0.00,,,0.00,0.000000,,2013-09-21 09:22:00,
2013-09-21 03:54:00,50.0,27.0,-100.00,WSW,243,7.0,10.0,41,0.00,,,0.00,0.000000,,2013-09-21 09:54:00,
2013-09-21 04:03:00,50.0,27.0,-100.00,WSW,243,7.0,10.0,41,0.00,,,0.00,0.000000,,2013-09-21 10:03:00,
2013-09-21 04:12:00,50.0,27.0,-100.00,WSW,243,7.0,10.0,41,0.00,,,0.00,0.000000,,2013-09-21 10:12:00,
2013-09-21 04:22:00,51.0,26.0,-100.00,WSW,244,3.0,11.0,38,0.00,,,0.00,0.000000,,2013-09-21 10:22:00,
2013-09-21 04:52:00,51.0,26.0,-100.00,WSW,244,3.0,11.0,38,0.00,,,0.00,0.000000,,2013-09-21 10:52:00,
2013-09-21 05:02:00,51.0,26.0,-100.00,WSW,244,3.0,11.0,38,0.00,,,0.00,0.000000,,2013-09-21 11:02:00,
2013-09-21 05:11:00,51.0,26.0,-100.00,WSW,244,3.0,11.0,38,0.00,,,0.00,0.000000,,2013-09-21 11:11:00,
2013-09-21 05:52:00,53.0,27.0,-100.00,SW,221,6.0,12.0,36,0.00,,,0.00,0.000000,,2013-09-21 11:52:00,
2013-09-21 06:02:00,53.0,27.0,-100.00,SW,221,6.0,12.0,36,0.00,,,0.00,0.000000,,2013-09-21 12:02:00,
2013-09-21 06:12:00,53.0,27.0,-100.00,SW,221,6.0,12.0,36,0.00,,,0.00,0.000000,,2013-09-21 12:12:00,
2013-09-21 06:21:00,53.0,27.0,-100.00,SW,221,6.0,12.0,36,0.00,,,0.00,0.000000,,2013-09-21 12:21:00,
2013-09-21 06:52:00,54.0,28.0,-100.00,SW,236,8.0,11.0,37,0.00,,,0.00,0.000000,,2013-09-21 12:52:00,
2013-09-21 07:02:00,54.0,28.0,-100.00,SW,236,8.0,11.0,37,0.00,,,0.00,0.000000,,2013-09-21 13:02:00,
2013-09-21 07:11:00,54.0,28.0,-100.00,SW,236,8.0,11.0,37,0.00,,,0.00,0.000000,,2013-09-21 13:11:00,
2013-09-21 07:21:00,54.0,28.0,-100.00,SW,236,8.0,11.0,37,0.00,,,0.00,0.000000,,2013-09-21 13:21:00,
2013-09-21 07:22:00,53.0,28.0,-100.00,SW,233,8.0,12.0,38,0.00,,,0.00,3.000000,,2013-09-21 13:22:00,
2013-09-21 07:52:00,53.0,28.0,-100.00,SW,233,8.0,12.0,38,0.00,,,0.00,3.000000,,2013-09-21 13:52:00,
2013-09-21 08:02:00,53.0,28.0,-100.00,SW,233,8.0,12.0,38,0.00,,,0.00,3.000000,,2013-09-21 14:02:00,
2013-09-21 08:11:00,53.0,28.0,-100.00,SW,233,8.0,12.0,38,0.00,,,0.00,3.000000,,2013-09-21 14:11:00,
2013-09-21 10:22:00,75.0,40.0,-100.00,South,182,3.0,6.0,28,-99.99,,,0.00,342.000000,,2013-09-21 16:22:00,
2013-09-21 10:54:00,75.0,40.0,-100.00,South,182,3.0,6.0,28,-99.99,,,0.00,342.000000,,2013-09-21 16:54:00,
2013-09-21 11:03:00,75.0,40.0,-100.00,South,182,3.0,6.0,28,-99.99,,,0.00,342.000000,,2013-09-21 17:03:00,
2013-09-21 11:12:00,75.0,40.0,-100.00,South,182,3.0,6.0,28,-99.99,,,0.00,342.000000,,2013-09-21 17:12:00,
2013-09-21 11:52:00,80.0,34.0,-100.00,South,179,7.0,14.0,19,0.00,,,0.00,708.000000,,2013-09-21 17:52:00,
2013-09-21 12:02:00,80.0,34.0,-100.00,South,179,7.0,14.0,19,0.00,,,0.00,708.000000,,2013-09-21 18:02:00,
2013-09-21 12:52:00,82.0,36.0,-100.00,West,269,4.0,13.0,19,-99.99,,,0.00,892.000000,,2013-09-21 18:52:00,
2013-09-21 13:02:00,82.0,36.0,-100.00,West,269,4.0,13.0,19,-99.99,,,0.00,892.000000,,2013-09-21 19:02:00,
2013-09-21 13:11:00,82.0,36.0,-100.00,West,269,4.0,13.0,19,-99.99,,,0.00,892.000000,,2013-09-21 19:11:00,
2013-09-21 13:21:00,82.0,36.0,-100.00,West,269,4.0,13.0,19,-99.99,,,0.00,892.000000,,2013-09-21 19:21:00,
2013-09-21 13:52:00,82.0,37.0,-100.00,North,8,8.0,17.0,20,0.00,,,0.00,955.000000,,2013-09-21 19:52:00,
2013-09-21 14:02:00,82.0,37.0,-100.00,North,8,8.0,17.0,20,0.00,,,0.00,955.000000,,2013-09-21 20:02:00,
2013-09-21 14:12:00,82.0,37.0,-100.00,North,8,8.0,17.0,20,0.00,,,0.00,955.000000,,2013-09-21 20:12:00,
2013-09-21 14:21:00,82.0,37.0,-100.00,North,8,8.0,17.0,20,0.00,,,0.00,955.000000,,2013-09-21 20:21:00,
2013-09-21 14:52:00,83.0,32.0,-100.00,WSW,251,5.0,20.0,16,0.00,,,0.00,952.000000,,2013-09-21 20:52:00,
2013-09-21 15:02:00,83.0,32.0,-100.00,WSW,251,5.0,20.0,16,0.00,,,0.00,952.000000,,2013-09-21 21:02:00,
2013-09-21 15:11:00,83.0,32.0,-100.00,WSW,251,5.0,20.0,16,0.00,,,0.00,952.000000,,2013-09-21 21:11:00,
2013-09-21 15:21:00,83.0,32.0,-100.00,WSW,251,5.0,20.0,16,0.00,,,0.00,952.000000,,2013-09-21 21:21:00,
2013-09-21 15:22:00,83.0,34.0,-100.00,WSW,240,13.0,22.0,17,0.00,,,-99.99,873.000000,,2013-09-21 21:22:00,
2013-09-21 15:54:00,83.0,34.0,-100.00,WSW,240,13.0,22.0,17,0.00,,,-99.99,873.000000,,2013-09-21 21:54:00,
2013-09-21 16:05:00,83.0,34.0,-100.00,WSW,240,13.0,22.0,17,0.00,,,-99.99,873.000000,,2013-09-21 22:05:00,
2013-09-21 16:13:00,83.0,34.0,-100.00,WSW,240,13.0,22.0,17,0.00,,,-99.99,873.000000,,2013-09-21 22:13:00,
2013-09-21 16:22:00,81.0,32.0,-100.00,WSW,249,12.0,18.0,17,0.00,,,0.00,689.000000,,2013-09-21 22:22:00,
2013-09-21 16:53:00,81.0,32.0,-100.00,WSW,249,12.0,18.0,17,0.00,,,0.00,689.000000,,2013-09-21 22:53:00,
2013-09-21 17:03:00,81.0,32.0,-100.00,WSW,249,12.0,18.0,17,0.00,,,0.00,689.000000,,2013-09-21 23:03:00,
2013-09-21 17:12:00,81.0,32.0,-100.00,WSW,249,12.0,18.0,17,0.00,,,0.00,689.000000,,2013-09-21 23:12:00,
2013-09-21 17:22:00,82.0,33.0,-100.00,SSW,204,6.0,16.0,17,0.00,,,0.00,451.000000,,2013-09-21 23:22:00,
2013-09-21 17:52:00,82.0,33.0,-100.00,SSW,204,6.0,16.0,17,0.00,,,0.00,451.000000,,2013-09-21 23:52:00,
2013-09-21 18:02:00,82.0,33.0,-100.00,SSW,204,6.0,16.0,17,0.00,,,0.00,451.000000,,2013-09-22 00:02:00,
2013-09-21 18:12:00,82.0,33.0,-100.00,SSW,204,6.0,16.0,17,0.00,,,0.00,451.000000,,2013-09-22 00:12:00,
2013-09-21 18:52:00,77.0,35.0,-100.00,South,183,5.0,9.0,22,0.00,,,0.00,276.000000,,2013-09-22 00:52:00,
2013-09-21 19:02:00,77.0,35.0,-100.00,South,183,5.0,9.0,22,0.00,,,0.00,276.000000,,2013-09-22 01:02:00,
2013-09-21 19:11:00,77.0,35.0,-100.00,South,183,5.0,9.0,22,0.00,,,0.00,276.000000,,2013-09-22 01:11:00,
2013-09-21 19:21:00,77.0,35.0,-100.00,South,183,5.0,9.0,22,0.00,,,0.00,276.000000,,2013-09-22 01:21:00,
2013-09-21 19:52:00,65.0,36.0,-100.00,WSW,245,8.0,11.0,34,0.00,,,0.00,44.000000,,2013-09-22 01:52:00,
2013-09-21 20:02:00,65.0,36.0,-100.00,WSW,245,8.0,11.0,34,0.00,,,0.00,44.000000,,2013-09-22 02:02:00,
2013-09-21 20:11:00,65.0,36.0,-100.00,WSW,245,8.0,11.0,34,0.00,,,0.00,44.000000,,2013-09-22 02:11:00,
2013-09-21 20:21:00,65.0,36.0,-100.00,WSW,245,8.0,11.0,34,0.00,,,0.00,44.000000,,2013-09-22 02:21:00,
2013-09-21 20:22:00,66.0,34.0,-100.00,WSW,246,8.0,13.0,31,0.00,,,0.00,0.000000,,2013-09-22 02:22:00,
2013-09-21 20:52:00,66.0,34.0,-100.00,WSW,246,8.0,13.0,31,0.00,,,0.00,0.000000,,2013-09-22 02:52:00,
2013-09-21 21:02:00,66.0,34.0,-100.00,WSW,246,8.0,13.0,31,0.00,,,0.00,0.000000,,2013-09-22 03:02:00,
2013-09-21 21:12:00,66.0,34.0,-100.00,WSW,246,8.0,13.0,31,0.00,,,0.00,0.000000,,2013-09-22 03:12:00,
2013-09-21 21:22:00,65.0,33.0,-100.00,WSW,247,11.0,13.0,30,0.00,,,0.00,0.000000,,2013-09-22 03:22:00,
2013-09-21 21:54:00,65.0,33.0,-100.00,WSW,247,11.0,13.0,30,0.00,,,0.00,0.000000,,2013-09-22 03:54:00,
2013-09-21 22:02:00,-999.0,-99.9,-100.00,WSW,247,11.0,13.0,-999,-99.99,,,-99.99,0.000000,,2013-09-22 04:02:00,
2013-09-21 22:14:00,65.0,33.0,-100.00,WSW,247,11.0,13.0,30,0.00,,,0.00,0.000000,,2013-09-22 04:14:00,
2013-09-21 22:22:00,64.0,34.0,-100.00,SW,236,8.0,14.0,32,0.00,,,0.00,0.000000,,2013-09-22 04:22:00,
2013-09-21 22:54:00,64.0,34.0,-100.00,SW,236,8.0,14.0,32,0.00,,,0.00,0.000000,,2013-09-22 04:54:00,
2013-09-21 23:03:00,64.0,34.0,-100.00,SW,236,8.0,14.0,32,0.00,,,0.00,0.000000,,2013-09-22 05:03:00,
2013-09-21 23:13:00,64.0,34.0,-100.00,SW,236,8.0,14.0,32,0.00,,,0.00,0.000000,,2013-09-22 05:13:00,
2013-09-21 23:53:00,64.0,34.0,-100.00,WSW,245,11.0,13.0,32,0.00,,,0.00,0.000000,,2013-09-22 05:53:00,